createdAt,value
2022-09-24T00:01:21.000Z,10.00
2022-09-24T00:03:55.707Z,10.00
2022-09-24T00:06:23.383Z,10.01
2022-09-24T00:08:51.850Z,9.97
2022-09-24T00:11:21.584Z,9.83
2022-09-24T00:13:49.616Z,9.91
2022-09-24T00:16:17.509Z,9.98
2022-09-24T00:18:44.497Z,10.00
2022-09-24T00:21:16.706Z,9.90
2022-09-24T00:23:43.602Z,9.83
2022-09-24T00:26:31.838Z,9.76
2022-09-24T00:28:59.183Z,9.70
2022-09-24T00:31:26.334Z,9.84
2022-09-24T00:33:54.393Z,9.82
2022-09-24T00:36:22.263Z,9.75
2022-09-24T00:38:54.237Z,9.79
2022-09-24T00:41:22.189Z,9.78
2022-09-24T00:43:49.675Z,9.78
2022-09-24T00:46:18.983Z,9.82
2022-09-24T00:48:46.907Z,9.79
2022-09-24T00:51:19.626Z,9.74
2022-09-24T00:53:50.142Z,9.81
2022-09-24T00:56:17.355Z,9.78
2022-09-24T00:58:50.285Z,9.76
2022-09-24T01:01:18.044Z,9.83
2022-09-24T01:03:45.802Z,9.82
2022-09-24T01:06:13.082Z,9.86
2022-09-24T01:08:40.470Z,9.94
2022-09-24T01:11:31.705Z,9.95
2022-09-24T01:14:04.234Z,9.99
2022-09-24T01:16:43.231Z,10.04
2022-09-24T01:19:19.928Z,9.97
2022-09-24T01:21:54.176Z,9.87
2022-09-24T01:24:38.704Z,9.94
2022-09-24T01:27:20.357Z,9.96
2022-09-24T01:29:53.436Z,9.97
2022-09-24T01:32:32.304Z,9.92
2022-09-24T01:35:02.868Z,9.98
2022-09-24T01:37:31.959Z,10.01
2022-09-24T01:39:59.041Z,9.96
2022-09-24T01:42:27.729Z,9.88
2022-09-24T01:44:55.160Z,9.92
2022-09-24T01:47:34.101Z,9.89
2022-09-24T01:50:02.078Z,9.93
2022-09-24T01:52:34.128Z,9.94
2022-09-24T01:55:01.641Z,9.98
2022-09-24T01:57:32.209Z,10.01
2022-09-24T02:00:03.253Z,9.94
2022-09-24T02:02:46.267Z,9.86
2022-09-24T02:05:30.892Z,9.80
2022-09-24T02:08:14.709Z,9.83
2022-09-24T02:10:57.221Z,9.83
2022-09-24T02:13:26.521Z,9.94
2022-09-24T02:15:59.055Z,9.91
2022-09-24T02:18:28.645Z,9.99
2022-09-24T02:20:55.497Z,9.93
2022-09-24T02:23:23.420Z,9.90
2022-09-24T02:25:58.087Z,9.84
2022-09-24T02:28:25.097Z,9.78
2022-09-24T02:31:03.958Z,9.87
2022-09-24T02:33:51.287Z,9.84
2022-09-24T02:36:18.708Z,9.82
2022-09-24T02:38:46.891Z,9.84
2022-09-24T02:41:13.941Z,9.85
2022-09-24T02:43:41.192Z,9.84
2022-09-24T02:46:11.315Z,9.90
2022-09-24T02:48:38.171Z,9.86
2022-09-24T02:51:05.562Z,9.83
2022-09-24T02:53:33.048Z,9.91
2022-09-24T02:56:00.974Z,9.91
2022-09-24T02:58:28.749Z,9.96
2022-09-24T03:00:56.591Z,9.96
2022-09-24T03:03:24.282Z,9.97
2022-09-24T03:05:53.141Z,9.99
2022-09-24T03:08:24.312Z,10.07
2022-09-24T03:10:51.332Z,10.06
2022-09-24T03:13:18.828Z,10.01
2022-09-24T03:15:46.499Z,10.01
2022-09-24T03:18:14.202Z,10.02
2022-09-24T03:20:41.149Z,9.95
2022-09-24T03:23:07.805Z,9.92
2022-09-24T03:25:34.482Z,10.04
2022-09-24T03:28:01.250Z,10.03
2022-09-24T03:30:46.237Z,10.03
2022-09-24T03:33:13.894Z,10.11
2022-09-24T03:35:40.536Z,10.07
2022-09-24T03:38:07.183Z,10.10
2022-09-24T03:40:34.031Z,10.12
2022-09-24T03:43:00.712Z,10.15
2022-09-24T03:45:27.347Z,10.29
2022-09-24T03:47:53.960Z,10.25
2022-09-24T03:50:20.624Z,10.14
2022-09-24T03:52:47.253Z,10.18
2022-09-24T03:55:13.860Z,10.24
2022-09-24T03:57:40.504Z,10.21
2022-09-24T04:00:07.933Z,10.18
2022-09-24T04:02:34.630Z,10.14
2022-09-24T04:05:01.856Z,10.16
2022-09-24T04:07:28.472Z,10.20
2022-09-24T04:09:55.112Z,10.25
2022-09-24T04:12:21.741Z,10.20
2022-09-24T04:14:48.343Z,10.24
2022-09-24T04:17:15.889Z,10.23
2022-09-24T04:19:43.313Z,10.22
2022-09-24T04:22:10.025Z,10.20
2022-09-24T04:24:36.622Z,10.25
2022-09-24T04:27:03.388Z,10.25
2022-09-24T04:29:30.038Z,10.36
2022-09-24T04:31:56.873Z,10.30
2022-09-24T04:34:23.473Z,10.32
2022-09-24T04:36:50.092Z,10.30
2022-09-24T04:39:16.749Z,10.28
2022-09-24T04:41:43.501Z,10.26
2022-09-24T04:44:11.366Z,10.22
2022-09-24T04:46:38.160Z,10.27
2022-09-24T04:49:06.028Z,10.31
2022-09-24T04:51:34.340Z,10.32
2022-09-24T04:54:02.926Z,10.31
2022-09-24T04:56:31.004Z,10.22
2022-09-24T04:58:58.756Z,10.19
2022-09-24T05:01:26.211Z,10.27
2022-09-24T05:03:53.750Z,10.30
2022-09-24T05:06:20.437Z,10.39
2022-09-24T05:08:47.202Z,10.28
2022-09-24T05:11:13.882Z,10.26
2022-09-24T05:13:40.604Z,10.26
2022-09-24T05:16:07.387Z,10.22
2022-09-24T05:18:34.077Z,10.34
2022-09-24T05:21:00.700Z,10.29
2022-09-24T05:23:27.329Z,10.24
2022-09-24T05:26:12.769Z,10.07
2022-09-24T05:28:40.619Z,10.16
2022-09-24T05:31:08.584Z,10.24
2022-09-24T05:33:36.265Z,10.31
2022-09-24T05:36:02.873Z,10.34
2022-09-24T05:38:30.093Z,10.37
2022-09-24T05:40:56.780Z,10.45
2022-09-24T05:43:23.921Z,10.43
2022-09-24T05:45:50.669Z,10.44
2022-09-24T05:48:17.369Z,10.47
2022-09-24T05:50:43.989Z,10.45
2022-09-24T05:53:10.661Z,10.41
2022-09-24T05:55:37.301Z,10.44
2022-09-24T05:58:08.057Z,10.65
2022-09-24T06:00:36.135Z,10.60
2022-09-24T06:03:09.229Z,10.66
2022-09-24T06:05:36.027Z,10.68
2022-09-24T06:08:04.390Z,10.82
2022-09-24T06:10:31.270Z,10.78
2022-09-24T06:12:57.917Z,10.83
2022-09-24T06:15:27.339Z,10.72
2022-09-24T06:17:54.977Z,10.90
2022-09-24T06:20:22.844Z,10.94
2022-09-24T06:22:50.704Z,10.94
2022-09-24T06:25:17.323Z,10.94
2022-09-24T06:27:43.979Z,10.88
2022-09-24T06:30:11.921Z,10.94
2022-09-24T06:32:38.700Z,10.89
2022-09-24T06:35:06.242Z,10.91
2022-09-24T06:37:34.119Z,10.97
2022-09-24T06:40:00.885Z,10.92
2022-09-24T06:42:27.933Z,11.02
2022-09-24T06:44:54.553Z,11.18
2022-09-24T06:47:21.171Z,11.19
2022-09-24T06:49:50.340Z,11.20
2022-09-24T06:52:16.993Z,11.20
2022-09-24T06:54:43.590Z,11.26
2022-09-24T06:57:10.211Z,11.32
2022-09-24T06:59:36.820Z,11.31
2022-09-24T07:02:03.544Z,11.27
2022-09-24T07:04:30.276Z,11.39
2022-09-24T07:07:15.264Z,11.39
2022-09-24T07:09:41.955Z,11.39
2022-09-24T07:12:08.973Z,11.32
2022-09-24T07:14:35.587Z,11.46
2022-09-24T07:17:02.429Z,11.43
2022-09-24T07:19:29.133Z,11.50
2022-09-24T07:21:55.770Z,11.48
2022-09-24T07:24:22.396Z,11.33
2022-09-24T07:26:49.242Z,11.41
2022-09-24T07:29:16.267Z,11.43
2022-09-24T07:31:42.957Z,11.63
2022-09-24T07:34:09.718Z,11.70
2022-09-24T07:36:36.751Z,11.71
2022-09-24T07:39:03.510Z,11.62
2022-09-24T07:41:30.267Z,11.82
2022-09-24T07:43:56.961Z,11.79
2022-09-24T07:46:24.882Z,11.88
2022-09-24T07:48:56.475Z,11.97
2022-09-24T07:51:24.064Z,12.02
2022-09-24T07:53:50.760Z,12.09
2022-09-24T07:56:17.768Z,12.16
2022-09-24T07:58:44.497Z,12.18
2022-09-24T08:01:11.205Z,12.24
2022-09-24T08:03:40.827Z,12.32
2022-09-24T08:06:07.755Z,12.35
2022-09-24T08:08:34.460Z,12.41
2022-09-24T08:11:05.350Z,12.45
2022-09-24T08:13:31.991Z,12.47
2022-09-24T08:16:01.851Z,12.53
2022-09-24T08:18:31.829Z,12.71
2022-09-24T08:21:06.846Z,12.76
2022-09-24T08:23:34.470Z,12.81
2022-09-24T08:26:01.143Z,12.87
2022-09-24T08:28:28.618Z,12.96
2022-09-24T08:31:03.750Z,13.00
2022-09-24T08:33:32.276Z,13.12
2022-09-24T08:36:06.918Z,13.14
2022-09-24T08:38:33.515Z,13.07
2022-09-24T08:41:11.780Z,13.19
2022-09-24T08:44:45.253Z,13.23
2022-09-24T08:47:23.585Z,13.31
2022-09-24T08:50:07.228Z,13.39
2022-09-24T08:52:36.608Z,13.50
2022-09-24T08:55:08.911Z,13.59
2022-09-24T08:57:40.754Z,13.53
2022-09-24T09:00:13.395Z,13.58
2022-09-24T09:02:42.765Z,13.61
2022-09-24T09:05:27.618Z,13.71
2022-09-24T09:08:42.187Z,13.57
2022-09-24T09:11:03.204Z,13.41
2022-09-24T09:13:59.793Z,13.68
2022-09-24T09:16:55.922Z,13.76
2022-09-24T09:19:28.212Z,13.66
2022-09-24T09:22:01.832Z,13.83
2022-09-24T09:24:49.862Z,13.66
2022-09-24T09:27:17.803Z,13.81
2022-09-24T09:29:48.006Z,13.87
2022-09-24T09:32:31.641Z,14.03
2022-09-24T09:35:22.919Z,14.11
2022-09-24T09:38:25.520Z,14.18
2022-09-24T09:41:00.175Z,14.22
2022-09-24T09:43:27.902Z,14.29
2022-09-24T09:46:09.812Z,14.50
2022-09-24T09:48:47.932Z,14.57
2022-09-24T09:51:23.317Z,14.58
2022-09-24T09:54:00.678Z,14.70
2022-09-24T09:56:41.634Z,14.75
2022-09-24T09:59:10.787Z,14.93
2022-09-24T10:01:42.210Z,14.89
2022-09-24T10:04:37.617Z,14.90
2022-09-24T10:07:17.595Z,15.08
2022-09-24T10:09:45.739Z,15.17
2022-09-24T10:12:22.079Z,15.27
2022-09-24T10:15:06.262Z,15.31
2022-09-24T10:17:38.086Z,15.34
2022-09-24T10:20:09.956Z,15.44
2022-09-24T10:22:37.665Z,15.38
2022-09-24T10:25:04.842Z,15.28
2022-09-24T10:27:36.384Z,15.24
2022-09-24T10:30:32.107Z,15.10
2022-09-24T10:32:59.809Z,15.24
2022-09-24T10:35:38.667Z,15.36
2022-09-24T10:38:17.211Z,15.39
2022-09-24T10:40:44.079Z,15.36
2022-09-24T10:43:16.948Z,15.54
2022-09-24T10:46:08.349Z,15.52
2022-09-24T10:48:48.681Z,15.57
2022-09-24T10:51:39.350Z,15.61
2022-09-24T10:54:26.265Z,15.71
2022-09-24T10:56:55.092Z,15.70
2022-09-24T10:59:39.698Z,15.78
2022-09-24T11:02:29.154Z,15.76
2022-09-24T11:05:11.509Z,15.75
2022-09-24T11:07:56.701Z,15.89
2022-09-24T11:10:49.470Z,15.93
2022-09-24T11:13:37.254Z,15.87
2022-09-24T11:16:29.014Z,15.97
2022-09-24T11:19:37.349Z,15.95
2022-09-24T11:22:03.959Z,16.10
2022-09-24T11:24:51.495Z,16.06
2022-09-24T11:28:09.909Z,16.19
2022-09-24T11:30:57.639Z,16.17
2022-09-24T11:33:46.987Z,16.32
2022-09-24T11:36:50.474Z,16.38
2022-09-24T11:39:39.080Z,16.58
2022-09-24T11:42:53.656Z,16.69
2022-09-24T11:45:47.760Z,16.65
2022-09-24T11:48:36.266Z,16.53
2022-09-24T11:51:05.469Z,16.54
2022-09-24T11:53:54.968Z,16.38
2022-09-24T11:56:25.073Z,16.23
2022-09-24T11:59:11.625Z,16.12
2022-09-24T12:01:41.131Z,15.86
2022-09-24T12:04:32.264Z,16.04
2022-09-24T12:07:04.219Z,15.97
2022-09-24T12:09:32.136Z,15.92
2022-09-24T12:12:04.097Z,16.11
2022-09-24T12:14:43.023Z,16.24
2022-09-24T12:17:19.154Z,16.16
2022-09-24T12:19:54.035Z,16.23
2022-09-24T12:22:21.963Z,16.36
2022-09-24T12:24:52.634Z,16.44
2022-09-24T12:27:36.292Z,16.52
2022-09-24T12:30:33.555Z,16.34
2022-09-24T12:33:25.731Z,16.17
2022-09-24T12:36:06.042Z,16.35
2022-09-24T12:38:37.667Z,16.38
2022-09-24T12:41:29.221Z,16.40
2022-09-24T12:44:07.549Z,16.33
2022-09-24T12:46:47.206Z,16.20
2022-09-24T12:49:34.713Z,16.12
2022-09-24T12:52:22.235Z,15.86
2022-09-24T12:54:54.981Z,16.26
2022-09-24T12:57:26.595Z,16.45
2022-09-24T12:59:55.830Z,16.41
2022-09-24T13:02:24.045Z,16.29
2022-09-24T13:05:01.744Z,16.29
2022-09-24T13:07:35.199Z,16.24
2022-09-24T13:10:17.127Z,16.32
2022-09-24T13:12:45.001Z,16.21
2022-09-24T13:15:28.601Z,16.24
2022-09-24T13:18:10.919Z,16.08
2022-09-24T13:20:40.224Z,15.82
2022-09-24T13:23:19.802Z,15.69
2022-09-24T13:25:56.410Z,15.78
2022-09-24T13:28:29.255Z,15.64
2022-09-24T13:31:10.791Z,15.73
2022-09-24T13:33:43.686Z,15.95
2022-09-24T13:36:16.453Z,15.94
2022-09-24T13:39:04.161Z,16.01
2022-09-24T13:41:49.076Z,15.82
2022-09-24T13:44:38.897Z,15.81
2022-09-24T13:47:14.643Z,15.77
2022-09-24T13:49:48.408Z,15.94
2022-09-24T13:52:36.160Z,15.98
2022-09-24T13:55:31.068Z,15.98
2022-09-24T13:57:58.254Z,15.92
2022-09-24T14:00:29.543Z,16.01
2022-09-24T14:03:01.253Z,15.98
2022-09-24T14:05:29.277Z,15.94
2022-09-24T14:08:03.309Z,15.86
2022-09-24T14:10:30.569Z,15.93
2022-09-24T14:13:17.596Z,15.86
2022-09-24T14:16:13.510Z,15.88
2022-09-24T14:18:40.510Z,15.86
2022-09-24T14:21:23.676Z,15.83
2022-09-24T14:24:02.783Z,15.78
2022-09-24T14:26:37.112Z,15.74
2022-09-24T14:29:29.243Z,15.70
2022-09-24T14:32:03.089Z,15.66
2022-09-24T14:34:36.065Z,15.62
2022-09-24T14:37:21.932Z,15.60
2022-09-24T14:39:50.249Z,15.65
2022-09-24T14:42:32.166Z,15.62
2022-09-24T14:45:00.015Z,15.58
2022-09-24T14:47:32.966Z,15.53
2022-09-24T14:49:59.922Z,15.55
2022-09-24T14:52:37.874Z,15.58
2022-09-24T14:55:18.109Z,15.61
2022-09-24T14:57:49.064Z,15.64
2022-09-24T15:00:36.457Z,15.58
2022-09-24T15:03:17.337Z,15.72
2022-09-24T15:05:46.266Z,15.61
2022-09-24T15:08:12.963Z,15.73
2022-09-24T15:10:43.701Z,15.64
2022-09-24T15:13:14.410Z,15.69
2022-09-24T15:15:41.205Z,15.84
2022-09-24T15:18:11.402Z,15.96
2022-09-24T15:20:38.474Z,15.87
2022-09-24T15:23:05.335Z,15.86
2022-09-24T15:25:31.940Z,15.84
2022-09-24T15:27:59.437Z,15.88
2022-09-24T15:30:26.102Z,15.87
2022-09-24T15:32:52.831Z,16.01
2022-09-24T15:35:19.510Z,16.01
2022-09-24T15:37:46.276Z,16.06
2022-09-24T15:40:33.872Z,15.97
2022-09-24T15:43:00.582Z,16.00
2022-09-24T15:45:27.217Z,16.17
2022-09-24T15:47:54.090Z,15.96
2022-09-24T15:50:21.774Z,15.99
2022-09-24T15:52:57.526Z,16.05
2022-09-24T15:55:24.294Z,15.89
2022-09-24T15:57:51.112Z,16.03
2022-09-24T16:00:20.004Z,15.97
2022-09-24T16:02:51.174Z,15.95
2022-09-24T16:05:18.961Z,15.94
2022-09-24T16:07:45.930Z,15.98
2022-09-24T16:10:13.735Z,15.85
2022-09-24T16:12:41.542Z,15.92
2022-09-24T16:15:09.359Z,15.98
2022-09-24T16:17:35.999Z,15.91
2022-09-24T16:20:02.692Z,15.91
2022-09-24T16:22:29.327Z,15.88
2022-09-24T16:24:56.026Z,15.87
2022-09-24T16:27:23.160Z,15.83
2022-09-24T16:29:50.210Z,15.84
2022-09-24T16:32:16.898Z,15.79
2022-09-24T16:34:43.541Z,15.77
2022-09-24T16:37:10.369Z,15.74
2022-09-24T16:39:37.268Z,15.62
2022-09-24T16:42:04.061Z,15.52
2022-09-24T16:44:30.720Z,15.51
2022-09-24T16:46:57.485Z,15.50
2022-09-24T16:49:27.858Z,15.38
2022-09-24T16:51:54.482Z,15.39
2022-09-24T16:54:23.070Z,15.29
2022-09-24T16:56:52.993Z,15.28
2022-09-24T16:59:19.784Z,15.35
2022-09-24T17:01:46.607Z,15.28
2022-09-24T17:04:13.309Z,15.09
2022-09-24T17:06:40.414Z,15.08
2022-09-24T17:09:26.090Z,15.02
2022-09-24T17:11:52.719Z,15.02
2022-09-24T17:14:19.462Z,14.94
2022-09-24T17:16:46.205Z,14.95
2022-09-24T17:19:13.490Z,14.99
2022-09-24T17:21:41.742Z,14.90
2022-09-24T17:24:08.736Z,14.84
2022-09-24T17:26:35.887Z,14.69
2022-09-24T17:29:02.615Z,14.66
2022-09-24T17:31:29.331Z,14.48
2022-09-24T17:34:05.883Z,14.42
2022-09-24T17:36:34.033Z,14.26
2022-09-24T17:39:01.197Z,14.15
2022-09-24T17:41:31.641Z,14.12
2022-09-24T17:44:01.465Z,14.06
2022-09-24T17:46:30.247Z,13.96
2022-09-24T17:48:59.271Z,13.85
2022-09-24T17:51:28.545Z,13.74
2022-09-24T17:53:55.598Z,13.64
2022-09-24T17:56:24.252Z,13.56
2022-09-24T17:58:52.675Z,13.49
2022-09-24T18:01:28.145Z,13.42
2022-09-24T18:03:56.271Z,13.35
2022-09-24T18:06:27.107Z,13.27
2022-09-24T18:08:57.101Z,13.12
2022-09-24T18:11:34.629Z,13.09
2022-09-24T18:14:02.717Z,12.98
2022-09-24T18:16:33.111Z,12.91
2022-09-24T18:19:00.888Z,12.77
2022-09-24T18:21:28.588Z,12.73
2022-09-24T18:23:56.403Z,12.81
2022-09-24T18:26:25.503Z,12.74
2022-09-24T18:28:53.752Z,12.60
2022-09-24T18:31:22.102Z,12.63
2022-09-24T18:33:50.348Z,12.66
2022-09-24T18:36:20.194Z,12.63
2022-09-24T18:38:47.110Z,12.45
2022-09-24T18:41:22.322Z,12.34
2022-09-24T18:43:49.355Z,12.38
2022-09-24T18:46:17.236Z,12.48
2022-09-24T18:48:47.199Z,12.53
2022-09-24T18:51:25.125Z,12.48
2022-09-24T18:53:57.276Z,12.39
2022-09-24T18:56:24.457Z,12.39
2022-09-24T18:59:05.874Z,12.30
2022-09-24T19:01:35.592Z,12.24
2022-09-24T19:04:02.900Z,12.18
2022-09-24T19:06:30.118Z,12.18
2022-09-24T19:08:57.032Z,12.16
2022-09-24T19:11:23.694Z,12.12
2022-09-24T19:13:52.419Z,12.20
2022-09-24T19:16:20.987Z,12.13
2022-09-24T19:18:47.676Z,12.17
2022-09-24T19:21:15.681Z,12.05
2022-09-24T19:23:51.052Z,11.86
2022-09-24T19:26:23.197Z,11.87
2022-09-24T19:28:53.371Z,11.98
2022-09-24T19:31:22.719Z,11.95
2022-09-24T19:33:50.579Z,11.98
2022-09-24T19:36:17.697Z,11.84
2022-09-24T19:38:45.100Z,11.66
2022-09-24T19:41:13.570Z,11.76
2022-09-24T19:43:42.898Z,11.71
2022-09-24T19:46:14.841Z,11.68
2022-09-24T19:48:43.670Z,11.88
2022-09-24T19:51:15.986Z,11.91
2022-09-24T19:53:43.688Z,11.98
2022-09-24T19:56:11.221Z,12.00
2022-09-24T19:58:37.841Z,11.99
2022-09-24T20:01:06.676Z,11.98
2022-09-24T20:03:35.433Z,11.95
2022-09-24T20:06:09.981Z,11.87
2022-09-24T20:08:37.077Z,11.88
2022-09-24T20:11:05.415Z,11.87
2022-09-24T20:13:32.871Z,11.87
2022-09-24T20:16:01.103Z,11.88
2022-09-24T20:18:28.286Z,11.86
2022-09-24T20:20:55.322Z,11.85
2022-09-24T20:23:24.729Z,11.92
2022-09-24T20:26:10.400Z,11.92
2022-09-24T20:28:37.648Z,11.88
2022-09-24T20:31:12.323Z,11.80
2022-09-24T20:33:41.256Z,11.77
2022-09-24T20:36:15.198Z,11.85
2022-09-24T20:38:44.957Z,11.93
2022-09-24T20:41:19.731Z,11.90
2022-09-24T20:43:46.770Z,11.87
2022-09-24T20:46:18.877Z,11.84
2022-09-24T20:48:45.619Z,11.81
2022-09-24T20:51:14.528Z,11.84
2022-09-24T20:53:41.928Z,11.82
2022-09-24T20:56:09.362Z,11.92
2022-09-24T20:58:40.054Z,11.82
2022-09-24T21:01:07.520Z,11.79
2022-09-24T21:03:49.911Z,11.78
2022-09-24T21:06:18.028Z,11.75
2022-09-24T21:08:46.496Z,11.79
2022-09-24T21:11:18.532Z,11.96
2022-09-24T21:13:51.641Z,11.98
2022-09-24T21:16:23.608Z,11.99
2022-09-24T21:18:52.309Z,12.05
2022-09-24T21:21:30.504Z,11.96
2022-09-24T21:23:59.925Z,12.00
2022-09-24T21:26:30.524Z,12.06
2022-09-24T21:29:13.162Z,11.99
2022-09-24T21:31:40.225Z,11.99
2022-09-24T21:34:07.674Z,11.94
2022-09-24T21:36:44.078Z,11.96
2022-09-24T21:39:16.060Z,11.91
2022-09-24T21:41:43.783Z,11.86
2022-09-24T21:44:12.961Z,11.85
2022-09-24T21:46:40.622Z,11.74
2022-09-24T21:49:07.424Z,11.83
2022-09-24T21:51:34.111Z,11.80
2022-09-24T21:54:02.647Z,11.82
2022-09-24T21:56:31.305Z,11.76
2022-09-24T21:58:58.362Z,11.70
2022-09-24T22:01:27.922Z,11.69
2022-09-24T22:03:55.966Z,11.69
2022-09-24T22:06:30.097Z,11.71
2022-09-24T22:09:02.597Z,11.81
2022-09-24T22:11:29.354Z,11.81
2022-09-24T22:14:02.957Z,11.79
2022-09-24T22:16:34.974Z,11.82
2022-09-24T22:19:03.618Z,11.86
2022-09-24T22:21:30.410Z,11.77
2022-09-24T22:23:57.391Z,11.68
2022-09-24T22:26:26.208Z,11.53
2022-09-24T22:28:54.041Z,11.42
2022-09-24T22:31:20.805Z,11.42
2022-09-24T22:34:05.908Z,11.39
2022-09-24T22:36:33.600Z,11.42
2022-09-24T22:39:00.900Z,11.52
2022-09-24T22:41:29.078Z,11.40
2022-09-24T22:43:57.163Z,11.47
2022-09-24T22:46:27.758Z,11.49
2022-09-24T22:48:55.978Z,11.60
2022-09-24T22:51:23.800Z,11.62
2022-09-24T22:53:50.522Z,11.64
2022-09-24T22:56:19.854Z,11.63
2022-09-24T22:58:51.839Z,11.62
2022-09-24T23:01:23.931Z,11.62
2022-09-24T23:03:52.265Z,11.40
2022-09-24T23:06:20.995Z,11.35
2022-09-24T23:08:48.513Z,11.38
2022-09-24T23:11:20.539Z,11.41
2022-09-24T23:13:52.663Z,11.58
2022-09-24T23:16:25.226Z,11.61
2022-09-24T23:18:54.186Z,11.64
2022-09-24T23:21:22.630Z,11.60
2022-09-24T23:23:54.055Z,11.55
2022-09-24T23:26:22.277Z,11.56
2022-09-24T23:28:51.115Z,11.69
2022-09-24T23:31:21.040Z,11.54
2022-09-24T23:33:48.189Z,11.59
2022-09-24T23:36:15.632Z,11.53
2022-09-24T23:38:43.044Z,11.55
2022-09-24T23:41:10.555Z,11.60
2022-09-24T23:43:37.467Z,11.61
2022-09-24T23:46:04.832Z,11.54
2022-09-24T23:48:31.951Z,11.46
2022-09-24T23:50:58.653Z,11.42
2022-09-24T23:53:25.934Z,11.49
2022-09-24T23:55:54.156Z,11.55
2022-09-24T23:58:22.541Z,11.65
